Time;durP1;ratioP1;P1;durP2;ratioP2;P2;SDS_P1;SDS_P2;PMS_P1;PMS_P2;Temp;Humidity;BMP_temperature;BMP_pressure;BME280_temperature;BME280_humidity;BME280_pressure;Samples;Min_cycle;Max_cycle;Signal;HPM_P1;HPM_P2
2023/04/04 00:04:51;;;;;;;0.20;0.15;;;2.50;99.90;;;;;;5134499;28;20030;-84
2023/04/04 00:11:41;;;;;;;0.38;0.38;;;2.50;99.90;;;;;;5134505;28;20046;-84
2023/04/04 00:18:21;;;;;;;0.70;0.38;;;2.50;99.90;;;;;;5134388;28;20034;-84
2023/04/04 00:24:34;;;;;;;0.22;0.10;;;2.30;99.90;;;;;;5113862;28;20037;-84
2023/04/04 00:31:06;;;;;;;1.35;0.20;;;2.40;99.90;;;;;;5117770;28;20381;-84
2023/04/04 00:37:13;;;;;;;;;;;2.20;99.90;;;;;;5118025;28;20038;-84
2023/04/04 00:47:41;;;;;;;0.10;0.10;;;2.10;99.90;;;;;;5117550;28;20034;-84
2023/04/04 00:53:50;;;;;;;0.63;0.43;;;2.10;99.90;;;;;;5117354;28;20034;-86
2023/04/04 00:59:58;;;;;;;0.63;0.45;;;2.00;99.90;;;;;;5117287;28;20034;-84
2023/04/04 01:06:07;;;;;;;;;;;2.00;99.90;;;;;;5117491;28;20027;-84
2023/04/04 01:08:35;;;;;;;0.20;0.20;;;1.90;99.90;;;;;;5117120;28;20018;-84
2023/04/04 01:11:01;;;;;;;0.52;0.08;;;2.00;99.90;;;;;;5137820;27;20107;-84
2023/04/04 01:13:27;;;;;;;0.30;0.20;;;2.00;99.90;;;;;;5137680;27;20133;-84
2023/04/04 01:19:43;;;;;;;;;;;1.90;99.90;;;;;;5137792;27;20065;-84
2023/04/04 01:22:11;;;;;;;0.10;0.05;;;1.90;99.90;;;;;;5118764;27;19920;-84
2023/04/04 01:24:41;;;;;;;0.25;0.15;;;2.60;99.90;;;;;;5119036;27;20051;-84
2023/04/04 01:27:06;;;;;;;0.63;0.35;;;2.10;99.90;;;;;;5119507;27;20063;-83
2023/04/04 01:29:32;;;;;;;0.30;0.20;;;1.90;99.90;;;;;;5119147;27;20128;-84
2023/04/04 01:32:11;;;;;;;0.20;0.17;;;1.70;99.90;;;;;;5137736;27;20042;-84
2023/04/04 01:34:46;;;;;;;0.30;0.25;;;1.60;99.90;;;;;;5137278;27;20039;-84
2023/04/04 01:41:21;;;;;;;0.68;0.13;;;1.60;99.90;;;;;;5131328;27;20045;-84
2023/04/04 01:48:27;;;;;;;0.22;0.22;;;1.50;99.90;;;;;;5093972;28;20277;-84
2023/04/04 01:54:34;;;;;;;0.43;0.43;;;1.40;99.90;;;;;;5093656;28;20038;-84
2023/04/04 02:00:40;;;;;;;0.45;0.40;;;1.30;99.90;;;;;;5093827;28;20059;-84
2023/04/04 02:06:33;;;;;;;0.22;0.22;;;1.20;99.90;;;;;;5077845;28;20094;-84
2023/04/04 02:12:45;;;;;;;0.20;0.20;;;1.00;99.90;;;;;;5095397;28;20035;-84
2023/04/04 02:15:11;;;;;;;1.17;0.43;;;0.90;99.90;;;;;;5077494;28;20055;-84
2023/04/04 02:17:38;;;;;;;0.40;0.40;;;0.90;99.90;;;;;;5077346;28;20084;-84
2023/04/04 02:20:05;;;;;;;0.30;0.30;;;1.00;99.90;;;;;;5060929;28;20052;-84
2023/04/04 02:22:30;;;;;;;0.73;0.73;;;1.00;99.90;;;;;;5078244;28;20040;-83
2023/04/04 02:24:56;;;;;;;1.40;0.67;;;1.50;99.90;;;;;;5077213;28;20385;-84
2023/04/04 02:27:23;;;;;;;0.67;0.20;;;1.00;99.90;;;;;;5077163;28;20040;-84
2023/04/04 02:29:48;;;;;;;0.32;0.32;;;1.00;99.90;;;;;;5095661;28;20044;-84
2023/04/04 02:32:22;;;;;;;0.30;0.30;;;1.00;99.90;;;;;;5077699;28;20481;-84
2023/04/04 02:38:31;;;;;;;;;;;0.90;99.90;;;;;;5095274;28;20070;-84
2023/04/04 02:40:57;;;;;;;0.45;0.20;;;0.90;99.90;;;;;;5077282;28;19923;-84
2023/04/04 02:43:22;;;;;;;0.27;0.27;;;0.80;99.90;;;;;;5093682;28;20048;-84
2023/04/04 02:45:48;;;;;;;0.00;0.00;;;1.50;99.90;;;;;;5077101;28;20082;-84
2023/04/04 02:52:38;;;;;;;0.13;0.13;;;0.70;99.90;;;;;;5115030;28;20082;-84
2023/04/04 02:55:05;;;;;;;0.63;0.22;;;1.00;99.90;;;;;;5115206;28;20126;-84
2023/04/04 02:57:31;;;;;;;1.35;0.28;;;0.70;99.90;;;;;;5114460;28;20048;-84
2023/04/04 02:59:57;;;;;;;1.03;0.20;;;1.20;99.90;;;;;;5115064;28;20070;-84
2023/04/04 03:02:23;;;;;;;0.10;0.10;;;1.40;99.90;;;;;;5115491;28;20043;-84
2023/04/04 03:04:49;;;;;;;1.73;0.68;;;0.60;99.90;;;;;;5114071;28;20192;-84
2023/04/04 03:07:15;;;;;;;0.20;0.20;;;1.30;99.90;;;;;;5096608;28;20538;-84
2023/04/04 03:09:43;;;;;;;0.10;0.10;;;0.60;99.90;;;;;;5080157;28;20047;-85
2023/04/04 03:12:10;;;;;;;0.17;0.13;;;0.60;99.90;;;;;;5097084;28;20040;-84
2023/04/04 03:14:36;;;;;;;0.30;0.30;;;0.60;99.90;;;;;;5114579;28;20095;-83
2023/04/04 03:17:02;;;;;;;0.20;0.20;;;0.60;99.90;;;;;;5130596;27;20054;-84
2023/04/04 03:19:28;;;;;;;0.43;0.43;;;0.50;99.90;;;;;;5113564;28;20051;-84
2023/04/04 03:21:56;;;;;;;1.20;0.37;;;0.50;99.90;;;;;;5113813;28;20043;-84
2023/04/04 03:28:09;;;;;;;;;;;0.50;99.90;;;;;;5114707;28;20472;-84
2023/04/04 03:30:34;;;;;;;0.17;0.17;;;0.50;99.90;;;;;;5113598;28;19920;-84
2023/04/04 03:33:06;;;;;;;2.50;0.30;;;1.30;99.90;;;;;;5096063;28;20062;-84
2023/04/04 03:35:32;;;;;;;0.20;0.20;;;1.20;99.90;;;;;;5114498;28;20094;-84
2023/04/04 03:38:02;;;;;;;0.83;0.53;;;0.30;99.90;;;;;;5113541;28;20063;-84
2023/04/04 03:40:28;;;;;;;0.32;0.17;;;0.20;99.90;;;;;;5112907;28;20388;-84
2023/04/04 03:42:54;;;;;;;0.10;0.10;;;0.20;99.90;;;;;;5113295;28;20406;-84
2023/04/04 03:45:19;;;;;;;0.33;0.13;;;0.90;99.90;;;;;;5113446;28;20047;-84
2023/04/04 03:47:45;;;;;;;0.30;0.30;;;0.10;99.90;;;;;;5082376;28;20059;-84
2023/04/04 03:50:44;;;;;;;0.23;0.20;;;0.10;99.90;;;;;;5075742;28;20138;-84
2023/04/04 03:53:11;;;;;;;;;;;0.00;99.90;;;;;;5076469;28;20077;-84
2023/04/04 03:55:41;;;;;;;2.47;0.30;;;0.00;99.90;;;;;;5059360;28;20297;-84
2023/04/04 03:58:06;;;;;;;0.32;0.32;;;0.00;99.90;;;;;;5076180;28;20051;-84
2023/04/04 04:00:32;;;;;;;0.70;0.70;;;0.00;99.90;;;;;;5075522;28;20048;-84
2023/04/04 04:02:57;;;;;;;1.63;0.30;;;0.00;99.90;;;;;;5075891;28;20048;-84
2023/04/04 04:05:23;;;;;;;0.00;0.00;;;0.60;99.90;;;;;;5059330;28;20071;-84
2023/04/04 04:07:49;;;;;;;1.10;0.60;;;-0.10;99.90;;;;;;5075964;28;20056;-84
2023/04/04 04:10:15;;;;;;;0.23;0.23;;;0.70;99.90;;;;;;5075554;28;20070;-84
2023/04/04 04:12:41;;;;;;;0.20;0.20;;;0.00;99.90;;;;;;5075817;28;20040;-84
2023/04/04 04:18:51;;;;;;;0.20;0.20;;;0.00;99.90;;;;;;5093404;28;20031;-84
2023/04/04 04:21:17;;;;;;;0.13;0.13;;;0.70;99.90;;;;;;5075575;28;20040;-84
2023/04/04 04:23:42;;;;;;;0.57;0.47;;;0.00;99.90;;;;;;5093468;28;20043;-89
2023/04/04 04:26:08;;;;;;;0.90;0.20;;;0.00;99.90;;;;;;5075549;28;20071;-84
2023/04/04 04:28:34;;;;;;;2.33;0.37;;;0.00;99.90;;;;;;5075583;28;20063;-84
2023/04/04 04:31:07;;;;;;;0.10;0.10;;;0.20;99.90;;;;;;5075042;28;20060;-84
2023/04/04 04:33:33;;;;;;;0.52;0.52;;;-0.10;99.90;;;;;;5075509;28;20052;-85
2023/04/04 04:36:03;;;;;;;0.30;0.20;;;0.70;99.90;;;;;;5075612;28;20135;-84
2023/04/04 04:38:29;;;;;;;0.68;0.60;;;-0.10;99.90;;;;;;5091963;28;20365;-84
2023/04/04 04:40:56;;;;;;;0.17;0.13;;;0.00;99.90;;;;;;5075304;28;20127;-85
2023/04/04 04:43:22;;;;;;;0.30;0.30;;;-0.60;99.90;;;;;;5075162;28;20087;-84
2023/04/04 04:45:49;;;;;;;0.10;0.10;;;-0.10;99.90;;;;;;5093180;28;20433;-84
2023/04/04 04:48:16;;;;;;;;;;;-0.20;99.90;;;;;;5092614;28;20504;-84
2023/04/04 04:50:45;;;;;;;0.10;0.10;;;-0.20;99.90;;;;;;5113079;28;19966;-84
2023/04/04 04:53:14;;;;;;;0.20;0.13;;;-0.10;99.90;;;;;;5112476;28;20119;-84
2023/04/04 04:55:43;;;;;;;0.63;0.32;;;-0.30;99.90;;;;;;5095436;28;20083;-84
2023/04/04 04:58:09;;;;;;;0.10;0.10;;;-0.30;99.90;;;;;;5112404;28;20047;-84
2023/04/04 05:00:36;;;;;;;0.32;0.25;;;-0.30;99.90;;;;;;5095191;28;20559;-84
2023/04/04 05:03:05;;;;;;;0.20;0.10;;;-0.30;99.90;;;;;;5111917;28;20578;-84
2023/04/04 05:05:33;;;;;;;0.30;0.30;;;-0.30;99.90;;;;;;5113423;28;20051;-84
2023/04/04 05:08:01;;;;;;;0.30;0.30;;;-0.30;99.90;;;;;;5095137;28;20040;-85
2023/04/04 05:10:27;;;;;;;0.15;0.15;;;-0.30;99.90;;;;;;5095133;28;20451;-84
2023/04/04 05:12:53;;;;;;;0.15;0.10;;;-0.10;99.90;;;;;;5115887;28;20559;-84
2023/04/04 05:15:20;;;;;;;0.20;0.20;;;-0.30;99.90;;;;;;5098635;28;20097;-84
2023/04/04 05:17:45;;;;;;;0.45;0.25;;;-0.30;99.90;;;;;;5098747;28;20058;-84
2023/04/04 05:20:11;;;;;;;0.85;0.50;;;0.10;99.90;;;;;;5115749;28;20040;-84
2023/04/04 05:22:44;;;;;;;0.10;0.10;;;-0.30;99.90;;;;;;5115905;28;20044;-85
2023/04/04 05:25:11;;;;;;;0.85;0.43;;;0.30;99.90;;;;;;5116866;28;20437;-85
2023/04/04 05:27:37;;;;;;;0.50;0.50;;;-0.20;99.90;;;;;;5115731;28;20105;-84
2023/04/04 05:30:03;;;;;;;0.40;0.30;;;-0.20;99.90;;;;;;5115753;28;20044;-85
2023/04/04 05:32:29;;;;;;;1.05;0.25;;;-0.20;99.90;;;;;;5115797;28;20135;-85
2023/04/04 05:34:55;;;;;;;0.50;0.50;;;0.80;99.90;;;;;;5115579;28;20127;-86
2023/04/04 05:37:21;;;;;;;1.03;1.03;;;0.00;99.90;;;;;;5115121;28;20105;-84
2023/04/04 05:39:46;;;;;;;0.20;0.17;;;-0.30;99.90;;;;;;5098284;28;20047;-84
2023/04/04 05:42:12;;;;;;;0.53;0.50;;;-0.20;99.90;;;;;;5115743;28;20131;-84
2023/04/04 05:44:38;;;;;;;0.13;0.13;;;0.80;99.90;;;;;;5080806;28;20378;-84
2023/04/04 05:47:04;;;;;;;0.10;0.10;;;-0.10;99.90;;;;;;5097051;28;20059;-86
2023/04/04 05:49:29;;;;;;;1.73;0.80;;;0.10;99.90;;;;;;5097902;28;20043;-84
2023/04/04 05:51:55;;;;;;;0.00;0.00;;;1.00;99.90;;;;;;5114332;28;20105;-84
2023/04/04 05:54:21;;;;;;;0.20;0.20;;;1.20;99.90;;;;;;5063936;28;20081;-84
2023/04/04 05:56:47;;;;;;;0.57;0.57;;;0.10;99.90;;;;;;5097521;28;20039;-83
2023/04/04 05:59:13;;;;;;;0.70;0.70;;;0.50;99.90;;;;;;5114338;28;20102;-84
2023/04/04 06:01:39;;;;;;;0.20;0.20;;;0.50;99.90;;;;;;5113794;28;20047;-83
2023/04/04 06:04:05;;;;;;;1.60;0.53;;;0.70;99.90;;;;;;5114280;28;20051;-89
2023/04/04 06:06:34;;;;;;;0.88;0.40;;;1.70;99.90;;;;;;5115185;28;20051;-85
2023/04/04 06:09:00;;;;;;;2.35;1.33;;;1.40;99.90;;;;;;5113773;28;20501;-86
2023/04/04 06:11:26;;;;;;;0.30;0.30;;;1.50;99.90;;;;;;5114556;28;20075;-85
2023/04/04 06:13:53;;;;;;;0.80;0.80;;;1.10;99.90;;;;;;5113863;28;20047;-86
2023/04/04 06:16:20;;;;;;;0.55;0.50;;;1.90;99.90;;;;;;5130828;27;20109;-86
2023/04/04 06:18:46;;;;;;;0.30;0.20;;;1.10;99.90;;;;;;5114513;28;20398;-84
2023/04/04 06:21:12;;;;;;;1.23;0.50;;;1.20;99.90;;;;;;5117003;27;20043;-84
2023/04/04 06:23:38;;;;;;;0.10;0.10;;;1.40;99.90;;;;;;5134787;27;20092;-83
2023/04/04 06:26:05;;;;;;;0.20;0.20;;;2.00;99.90;;;;;;5100937;27;20090;-85
2023/04/04 06:28:31;;;;;;;0.20;0.20;;;1.60;99.90;;;;;;5117600;27;20055;-83
2023/04/04 06:30:57;;;;;;;0.73;0.50;;;1.90;99.90;;;;;;5117514;27;20477;-84
2023/04/04 06:33:23;;;;;;;0.10;0.10;;;2.10;99.90;;;;;;5134792;27;20054;-85
2023/04/04 06:35:48;;;;;;;0.77;0.30;;;2.60;99.90;;;;;;5117387;27;20285;-88
2023/04/04 06:38:14;;;;;;;0.57;0.20;;;2.50;99.90;;;;;;5134873;27;20405;-88
2023/04/04 06:40:40;;;;;;;0.40;0.30;;;2.70;99.90;;;;;;5116600;27;20148;-88
2023/04/04 06:43:06;;;;;;;1.23;0.57;;;3.20;99.90;;;;;;5116996;27;20431;-88
2023/04/04 06:45:34;;;;;;;0.50;0.50;;;3.30;99.90;;;;;;5116909;27;20043;-87
2023/04/04 06:48:01;;;;;;;1.10;1.00;;;3.80;99.90;;;;;;5099399;27;20062;-88
2023/04/04 06:50:32;;;;;;;1.05;0.95;;;4.30;99.90;;;;;;5082643;27;20055;-88
2023/04/04 06:53:00;;;;;;;0.30;0.30;;;4.60;99.90;;;;;;5116818;27;20043;-91
2023/04/04 06:55:26;;;;;;;0.80;0.50;;;4.90;99.90;;;;;;5100336;27;20039;-88
2023/04/04 06:57:52;;;;;;;0.20;0.20;;;5.30;99.90;;;;;;5100318;27;20143;-89
2023/04/04 07:00:18;;;;;;;0.32;0.32;;;5.50;99.90;;;;;;5100052;27;20631;-90
2023/04/04 07:02:44;;;;;;;0.30;0.30;;;5.70;99.90;;;;;;5083640;27;20057;-88
2023/04/04 07:05:11;;;;;;;0.37;0.37;;;6.00;99.90;;;;;;5083502;27;20470;-88
2023/04/04 07:07:36;;;;;;;;;;;6.30;99.90;;;;;;5083614;27;20056;-89
2023/04/04 07:10:06;;;;;;;0.30;0.30;;;6.70;99.90;;;;;;5117142;27;19927;-89
2023/04/04 07:12:32;;;;;;;0.30;0.30;;;6.90;99.90;;;;;;5082720;27;20046;-88
2023/04/04 07:14:57;;;;;;;0.45;0.45;;;7.10;99.90;;;;;;5100112;27;20138;-88
2023/04/04 07:17:24;;;;;;;0.93;0.40;;;6.90;99.90;;;;;;5083421;27;20129;-89
2023/04/04 07:19:50;;;;;;;0.95;0.55;;;7.60;99.90;;;;;;5082776;27;20285;-87
2023/04/04 07:22:15;;;;;;;0.10;0.10;;;7.80;99.90;;;;;;5117193;27;20054;-88
2023/04/04 07:24:41;;;;;;;0.30;0.30;;;7.90;99.90;;;;;;5117652;27;20043;-90
2023/04/04 07:27:10;;;;;;;0.55;0.32;;;8.10;99.90;;;;;;5082739;27;20392;-90
2023/04/04 07:29:35;;;;;;;0.32;0.32;;;8.30;99.90;;;;;;5099326;27;20035;-89
2023/04/04 07:32:01;;;;;;;0.40;0.40;;;8.60;99.90;;;;;;5082382;27;20046;-89
2023/04/04 07:34:28;;;;;;;0.52;0.30;;;8.80;99.90;;;;;;5115852;27;20094;-88
2023/04/04 07:37:37;;;;;;;0.10;0.10;;;8.90;99.90;;;;;;5099624;27;20512;-84
2023/04/04 07:40:03;;;;;;;;;;;9.10;99.90;;;;;;5115575;28;20051;-90
2023/04/04 07:42:29;;;;;;;0.17;0.17;;;9.40;99.90;;;;;;5116330;27;19919;-86
2023/04/04 07:44:55;;;;;;;2.63;0.68;;;9.50;99.90;;;;;;5116202;28;20382;-88
2023/04/04 07:47:21;;;;;;;0.10;0.10;;;9.50;99.90;;;;;;5116036;27;20108;-87
2023/04/04 07:49:47;;;;;;;0.32;0.32;;;9.60;99.90;;;;;;5099370;27;20047;-87
2023/04/04 07:52:12;;;;;;;0.23;0.23;;;9.80;99.90;;;;;;5099155;27;20129;-87
2023/04/04 07:54:41;;;;;;;0.10;0.10;;;10.10;99.90;;;;;;5082800;28;20292;-87
2023/04/04 07:57:08;;;;;;;0.17;0.17;;;10.10;99.90;;;;;;5116887;27;20127;-86
2023/04/04 07:59:35;;;;;;;0.15;0.10;;;10.50;99.90;;;;;;5134534;27;20043;-87
2023/04/04 08:02:01;;;;;;;0.10;0.10;;;10.60;99.90;;;;;;5099246;28;20401;-89
2023/04/04 08:04:26;;;;;;;0.20;0.10;;;10.80;99.90;;;;;;5134595;28;20062;-86
2023/04/04 08:06:52;;;;;;;0.20;0.20;;;10.90;99.90;;;;;;5099156;28;20050;-86
2023/04/04 08:09:18;;;;;;;0.17;0.17;;;10.70;99.90;;;;;;5134678;28;20051;-89
2023/04/04 08:11:44;;;;;;;0.30;0.30;;;10.80;97.20;;;;;;5082279;28;20079;-88
2023/04/04 08:14:10;;;;;;;0.30;0.17;;;10.80;98.60;;;;;;5083572;28;20115;-87
2023/04/04 08:16:37;;;;;;;0.50;0.10;;;11.00;99.90;;;;;;5098913;28;20065;-87
2023/04/04 08:19:03;;;;;;;0.47;0.30;;;10.90;99.40;;;;;;5115949;28;20079;-87
2023/04/04 08:21:29;;;;;;;0.30;0.20;;;10.90;99.90;;;;;;5115262;28;20172;-87
2023/04/04 08:23:55;;;;;;;0.20;0.20;;;10.90;99.90;;;;;;5115931;28;20040;-89
2023/04/04 08:26:21;;;;;;;0.20;0.20;;;10.60;98.40;;;;;;5133776;28;20043;-89
2023/04/04 08:28:47;;;;;;;0.40;0.30;;;10.60;97.50;;;;;;5081466;28;20083;-88
2023/04/04 08:31:13;;;;;;;0.25;0.20;;;10.60;99.90;;;;;;5115648;28;20102;-87
2023/04/04 08:33:39;;;;;;;1.35;0.47;;;10.60;99.90;;;;;;5132804;28;20505;-88
2023/04/04 08:36:05;;;;;;;0.00;0.00;;;10.30;96.80;;;;;;5114655;28;20469;-87
2023/04/04 08:38:30;;;;;;;0.30;0.30;;;10.30;96.50;;;;;;5114344;28;20058;-87
2023/04/04 08:40:57;;;;;;;0.20;0.20;;;10.20;99.90;;;;;;5114571;28;20552;-86
2023/04/04 08:43:24;;;;;;;0.20;0.20;;;10.20;99.90;;;;;;5115187;28;20307;-92
2023/04/04 08:45:53;;;;;;;0.00;0.00;;;10.30;99.90;;;;;;5115892;27;20099;-86
2023/04/04 08:48:20;;;;;;;0.13;0.10;;;10.30;99.90;;;;;;5119338;27;20050;-87
2023/04/04 08:50:46;;;;;;;1.17;0.30;;;10.30;98.80;;;;;;5138200;27;20122;-85
2023/04/04 08:53:13;;;;;;;;;;;10.40;99.90;;;;;;5103535;27;20054;-86
2023/04/04 08:55:39;;;;;;;0.32;0.20;;;10.30;93.70;;;;;;5118667;27;20331;-86
2023/04/04 08:58:04;;;;;;;0.00;0.00;;;10.10;99.90;;;;;;5119002;27;20050;-85
2023/04/04 09:00:31;;;;;;;0.10;0.10;;;9.90;96.70;;;;;;5121836;27;20054;-89
2023/04/04 09:03:13;;;;;;;0.85;0.30;;;9.80;99.90;;;;;;5138021;27;20051;-86
2023/04/04 09:05:39;;;;;;;0.10;0.10;;;9.90;94.80;;;;;;5138243;27;20039;-87
2023/04/04 09:08:06;;;;;;;0.55;0.20;;;9.80;93.40;;;;;;5102645;27;20446;-87
2023/04/04 09:10:32;;;;;;;0.10;0.10;;;9.80;96.70;;;;;;5137192;27;20047;-86
2023/04/04 09:12:58;;;;;;;0.20;0.20;;;9.90;99.90;;;;;;5137393;27;20047;-85
2023/04/04 09:15:24;;;;;;;0.20;0.20;;;10.00;97.00;;;;;;5102012;27;20051;-87
2023/04/04 09:17:50;;;;;;;0.10;0.10;;;10.30;99.90;;;;;;5119207;27;20050;-86
2023/04/04 09:20:37;;;;;;;0.25;0.25;;;10.70;96.10;;;;;;5137273;27;20051;-87
2023/04/04 09:23:13;;;;;;;0.85;0.63;;;11.10;94.00;;;;;;5119210;27;20054;-86
2023/04/04 09:25:49;;;;;;;0.17;0.17;;;11.40;97.10;;;;;;5138227;27;20080;-89
2023/04/04 09:28:16;;;;;;;0.20;0.17;;;11.50;94.90;;;;;;5120463;27;20039;-86
2023/04/04 09:30:49;;;;;;;0.17;0.13;;;11.60;93.60;;;;;;5101379;27;20485;-86
2023/04/04 09:33:18;;;;;;;0.60;0.22;;;11.50;92.20;;;;;;5118355;27;20076;-86
2023/04/04 09:35:45;;;;;;;0.30;0.30;;;11.40;91.30;;;;;;5118529;27;20107;-85
2023/04/04 09:38:13;;;;;;;0.10;0.10;;;11.50;92.70;;;;;;5101642;27;20096;-85
2023/04/04 09:40:40;;;;;;;0.30;0.28;;;11.50;95.60;;;;;;5118362;27;20043;-86
2023/04/04 09:43:07;;;;;;;0.20;0.20;;;11.50;94.60;;;;;;5136573;27;20046;-84
2023/04/04 09:45:34;;;;;;;0.10;0.10;;;11.60;93.40;;;;;;5135985;27;20035;-86
2023/04/04 09:48:01;;;;;;;0.20;0.10;;;11.70;91.50;;;;;;5102490;27;20086;-84
2023/04/04 09:50:29;;;;;;;0.52;0.40;;;11.70;91.10;;;;;;5136288;27;20047;-85
2023/04/04 09:52:58;;;;;;;0.38;0.30;;;11.90;94.70;;;;;;5117321;27;20080;-84
2023/04/04 09:55:37;;;;;;;0.32;0.32;;;11.90;94.30;;;;;;5118302;27;20050;-85
2023/04/04 09:58:12;;;;;;;0.15;0.10;;;12.00;86.30;;;;;;5117643;27;20047;-84
2023/04/04 10:00:47;;;;;;;0.20;0.20;;;12.10;84.80;;;;;;5136160;27;20039;-84
2023/04/04 10:03:14;;;;;;;0.10;0.10;;;12.30;93.10;;;;;;5118328;27;20043;-85
2023/04/04 10:05:41;;;;;;;1.63;0.30;;;12.50;91.20;;;;;;5135587;27;20050;-87
2023/04/04 10:08:21;;;;;;;0.08;0.03;;;12.60;80.10;;;;;;5135806;27;20378;-84
2023/04/04 10:10:55;;;;;;;0.30;0.30;;;12.60;83.60;;;;;;5135848;27;20095;-84
2023/04/04 10:13:24;;;;;;;0.55;0.20;;;12.70;80.20;;;;;;5101207;27;20046;-84
2023/04/04 10:15:52;;;;;;;0.20;0.20;;;12.60;84.20;;;;;;5117771;27;20103;-84
2023/04/04 10:18:20;;;;;;;0.35;0.35;;;12.60;91.40;;;;;;5135937;27;20050;-84
2023/04/04 10:20:48;;;;;;;0.35;0.20;;;12.50;85.80;;;;;;5135518;27;20043;-83
2023/04/04 10:23:15;;;;;;;0.30;0.25;;;12.40;84.90;;;;;;5135858;27;20047;-82
2023/04/04 10:25:41;;;;;;;;;;;12.40;90.60;;;;;;5117623;27;20051;-83
2023/04/04 10:28:07;;;;;;;0.00;0.00;;;12.40;79.40;;;;;;5117139;27;19960;-83
2023/04/04 10:30:40;;;;;;;0.85;0.10;;;12.50;81.50;;;;;;5117833;27;20055;-83
2023/04/04 10:33:11;;;;;;;0.38;0.35;;;12.50;85.90;;;;;;5117515;27;20140;-84
2023/04/04 10:35:39;;;;;;;0.32;0.10;;;12.30;81.90;;;;;;5135093;27;20047;-83
2023/04/04 10:38:07;;;;;;;0.30;0.20;;;12.00;87.60;;;;;;5135261;27;20047;-83
2023/04/04 10:40:36;;;;;;;2.03;0.30;;;12.10;92.90;;;;;;5117079;27;20108;-83
2023/04/04 10:43:04;;;;;;;0.10;0.10;;;12.00;87.70;;;;;;5116459;27;20051;-83
2023/04/04 10:45:32;;;;;;;0.22;0.22;;;12.10;85.30;;;;;;5135055;27;20039;-83
2023/04/04 10:47:58;;;;;;;0.32;0.30;;;12.20;87.10;;;;;;5116182;27;20085;-83
2023/04/04 10:50:25;;;;;;;0.40;0.40;;;12.30;90.60;;;;;;5116626;27;20497;-83
2023/04/04 10:52:52;;;;;;;0.35;0.30;;;12.40;90.50;;;;;;5099579;27;20478;-83
2023/04/04 10:55:18;;;;;;;0.20;0.20;;;12.40;82.60;;;;;;5116488;27;20046;-85
2023/04/04 10:57:50;;;;;;;;;;;12.60;81.20;;;;;;5116514;27;20047;-83
2023/04/04 11:00:18;;;;;;;0.20;0.15;;;12.60;80.50;;;;;;5134597;27;19923;-83
2023/04/04 11:03:00;;;;;;;1.02;0.93;;;12.80;84.30;;;;;;5116078;27;20051;-84
2023/04/04 11:05:31;;;;;;;0.40;0.40;;;12.70;82.00;;;;;;5134408;27;20147;-83
2023/04/04 11:08:02;;;;;;;0.30;0.30;;;12.80;88.60;;;;;;5116089;27;20184;-82
2023/04/04 11:10:34;;;;;;;0.47;0.20;;;13.00;91.70;;;;;;5115913;27;20051;-83
2023/04/04 11:13:15;;;;;;;0.10;0.10;;;13.10;90.60;;;;;;5134232;27;20054;-83
2023/04/04 11:15:59;;;;;;;0.40;0.35;;;13.10;79.70;;;;;;5134299;27;20043;-82
2023/04/04 11:18:31;;;;;;;0.57;0.30;;;13.20;79.00;;;;;;5116309;27;20126;-83
2023/04/04 11:21:00;;;;;;;0.20;0.20;;;13.10;77.50;;;;;;5134249;27;20108;-84
2023/04/04 11:23:27;;;;;;;0.52;0.35;;;13.30;82.50;;;;;;5134164;27;20039;-83
2023/04/04 11:25:56;;;;;;;0.10;0.10;;;13.30;80.40;;;;;;5133766;27;20081;-81
2023/04/04 11:28:34;;;;;;;0.30;0.30;;;13.30;83.90;;;;;;5133939;27;20054;-84
2023/04/04 11:31:19;;;;;;;0.25;0.25;;;13.30;77.60;;;;;;5115676;27;20134;-84
2023/04/04 11:34:12;;;;;;;0.10;0.10;;;13.40;78.10;;;;;;5115904;27;20486;-84
2023/04/04 11:36:39;;;;;;;0.35;0.25;;;13.40;74.60;;;;;;5115816;27;20388;-88
2023/04/04 11:39:11;;;;;;;0.20;0.13;;;13.40;81.00;;;;;;5115664;27;20051;-84
2023/04/04 11:41:53;;;;;;;0.55;0.20;;;13.40;79.90;;;;;;5133905;27;20130;-84
2023/04/04 11:44:24;;;;;;;0.30;0.20;;;13.60;75.40;;;;;;5133838;27;20130;-84
2023/04/04 11:47:04;;;;;;;0.75;0.30;;;13.70;81.80;;;;;;5098600;27;20059;-87
2023/04/04 11:49:35;;;;;;;0.20;0.20;;;13.60;76.00;;;;;;5115848;27;20126;-86
2023/04/04 11:52:05;;;;;;;0.70;0.25;;;13.40;75.50;;;;;;5115634;28;20039;-85
2023/04/04 11:54:31;;;;;;;0.20;0.20;;;13.40;73.50;;;;;;5099022;27;20046;-85
2023/04/04 11:56:57;;;;;;;0.10;0.10;;;13.60;89.80;;;;;;5115205;27;20050;-85
2023/04/04 11:59:23;;;;;;;0.75;0.40;;;13.70;84.90;;;;;;5098747;27;20129;-85
2023/04/04 12:01:49;;;;;;;0.30;0.30;;;13.70;76.30;;;;;;5098684;27;20169;-85
2023/04/04 12:04:19;;;;;;;0.20;0.20;;;13.60;86.60;;;;;;5133567;27;20280;-86
2023/04/04 12:06:55;;;;;;;0.20;0.13;;;13.60;83.20;;;;;;5133868;28;20054;-85
2023/04/04 12:09:24;;;;;;;0.85;0.25;;;13.70;70.60;;;;;;5114927;28;20470;-86
2023/04/04 12:11:50;;;;;;;0.25;0.25;;;13.90;72.90;;;;;;5115698;28;20047;-85
2023/04/04 12:14:18;;;;;;;0.50;0.47;;;14.00;84.80;;;;;;5097832;28;20560;-85
2023/04/04 12:16:46;;;;;;;0.20;0.20;;;14.20;72.90;;;;;;5133685;28;20126;-84
2023/04/04 12:19:12;;;;;;;0.28;0.28;;;14.50;71.60;;;;;;5132571;28;20047;-81
2023/04/04 12:21:38;;;;;;;0.15;0.15;;;14.70;73.30;;;;;;5119206;27;20032;-82
2023/04/04 12:24:06;;;;;;;0.68;0.20;;;14.70;71.10;;;;;;5136921;27;20134;-88
2023/04/04 12:26:32;;;;;;;0.25;0.22;;;14.80;69.00;;;;;;5118697;27;20051;-86
2023/04/04 12:28:58;;;;;;;0.13;0.13;;;14.70;83.70;;;;;;5118726;27;20055;-84
2023/04/04 12:31:28;;;;;;;1.00;0.17;;;14.50;72.20;;;;;;5138331;27;20363;-85
2023/04/04 12:33:54;;;;;;;0.38;0.20;;;14.20;66.60;;;;;;5119973;27;20080;-87
2023/04/04 12:36:21;;;;;;;0.20;0.17;;;14.40;78.10;;;;;;5119748;27;20114;-84
2023/04/04 12:39:10;;;;;;;0.38;0.20;;;14.30;65.50;;;;;;5102906;27;20057;-85
2023/04/04 12:41:47;;;;;;;0.35;0.30;;;14.30;70.00;;;;;;5138330;27;20389;-84
2023/04/04 12:44:31;;;;;;;0.38;0.32;;;14.50;70.10;;;;;;5102689;27;20043;-84
2023/04/04 12:46:59;;;;;;;0.38;0.38;;;14.10;63.70;;;;;;5118831;27;20071;-86
2023/04/04 12:49:29;;;;;;;0.28;0.20;;;14.30;71.10;;;;;;5137417;27;20382;-84
2023/04/04 12:51:55;;;;;;;0.85;0.10;;;14.20;63.80;;;;;;5119710;27;20051;-84
2023/04/04 12:54:29;;;;;;;0.10;0.08;;;14.20;69.40;;;;;;5118560;27;20057;-85
2023/04/04 12:56:56;;;;;;;0.60;0.20;;;14.30;64.00;;;;;;5137810;27;20053;-84
2023/04/04 12:59:27;;;;;;;0.28;0.10;;;14.40;71.40;;;;;;5137726;27;20047;-85
2023/04/04 13:01:53;;;;;;;0.75;0.40;;;14.30;72.10;;;;;;5137448;27;20039;-85
2023/04/04 13:04:18;;;;;;;0.53;0.30;;;14.20;69.00;;;;;;5118873;27;20126;-85
2023/04/04 13:06:46;;;;;;;0.77;0.40;;;14.20;75.10;;;;;;5119284;27;20281;-85
2023/04/04 13:09:22;;;;;;;1.75;0.50;;;14.20;72.50;;;;;;5119082;27;20108;-85
2023/04/04 13:12:03;;;;;;;1.55;0.30;;;14.40;66.90;;;;;;5101730;27;20086;-84
2023/04/04 13:15:01;;;;;;;0.30;0.30;;;14.80;65.20;;;;;;5119645;27;20087;-85
2023/04/04 13:17:48;;;;;;;0.17;0.17;;;15.20;64.40;;;;;;5119008;27;20054;-85
2023/04/04 13:20:15;;;;;;;0.52;0.40;;;15.20;63.40;;;;;;5137077;27;20561;-85
2023/04/04 13:22:42;;;;;;;0.40;0.40;;;15.30;63.80;;;;;;5118462;27;20082;-85
2023/04/04 13:25:08;;;;;;;;;;;15.20;65.30;;;;;;5118783;27;20055;-85
2023/04/04 13:27:35;;;;;;;0.20;0.20;;;15.20;61.40;;;;;;5118532;27;19927;-85
2023/04/04 13:30:02;;;;;;;0.65;0.40;;;15.00;72.70;;;;;;5118980;27;20099;-92
2023/04/04 13:32:28;;;;;;;0.40;0.40;;;14.60;73.50;;;;;;5118101;27;20043;-85
2023/04/04 13:34:53;;;;;;;0.23;0.23;;;14.30;59.90;;;;;;5101689;27;20092;-84
2023/04/04 13:37:19;;;;;;;0.10;0.10;;;14.40;66.80;;;;;;5101485;27;20366;-85
2023/04/04 13:39:45;;;;;;;0.33;0.10;;;14.50;68.20;;;;;;5137098;27;20284;-85
2023/04/04 13:42:11;;;;;;;0.10;0.10;;;14.40;68.30;;;;;;5136823;27;20526;-85
2023/04/04 13:44:37;;;;;;;0.17;0.17;;;14.40;64.60;;;;;;5085008;27;20086;-85
2023/04/04 13:47:03;;;;;;;0.63;0.40;;;14.50;64.90;;;;;;5101505;27;20405;-85
2023/04/04 13:49:28;;;;;;;0.20;0.20;;;14.40;75.00;;;;;;5118444;27;20059;-85
2023/04/04 13:51:54;;;;;;;0.67;0.20;;;14.50;64.60;;;;;;5084747;27;20054;-85
2023/04/04 13:54:20;;;;;;;0.37;0.30;;;14.50;68.40;;;;;;5117974;27;20608;-85
2023/04/04 13:56:46;;;;;;;1.17;0.80;;;14.70;60.50;;;;;;5101212;27;20320;-85
2023/04/04 13:59:12;;;;;;;0.40;0.20;;;14.60;62.30;;;;;;5136395;27;20096;-85
2023/04/04 14:01:41;;;;;;;0.55;0.50;;;14.70;61.30;;;;;;5136727;27;20043;-85
2023/04/04 14:04:06;;;;;;;0.57;0.40;;;14.70;62.00;;;;;;5136452;27;20047;-86
2023/04/04 14:06:32;;;;;;;0.10;0.10;;;14.80;67.80;;;;;;5117176;27;20061;-84
2023/04/04 14:08:58;;;;;;;0.20;0.20;;;15.10;66.20;;;;;;5136233;27;20121;-85
2023/04/04 14:11:33;;;;;;;0.40;0.40;;;15.40;72.80;;;;;;5136105;27;20273;-85
2023/04/04 14:13:58;;;;;;;0.15;0.15;;;15.50;65.40;;;;;;5135434;27;20273;-86
2023/04/04 14:16:24;;;;;;;0.53;0.30;;;15.70;72.00;;;;;;5083166;27;20124;-85
2023/04/04 14:18:50;;;;;;;0.88;0.70;;;15.40;71.10;;;;;;5117750;27;20281;-84
2023/04/04 14:21:16;;;;;;;;;;;15.50;62.40;;;;;;5101145;27;20050;-85
2023/04/04 14:23:42;;;;;;;0.52;0.35;;;15.20;61.50;;;;;;5100906;27;19919;-87
2023/04/04 14:26:08;;;;;;;0.52;0.45;;;14.90;67.90;;;;;;5116851;27;20054;-88